createdAt,value
2023-07-15T00:01:32.254Z,100359.44
2023-07-15T00:03:58.923Z,100360.22
2023-07-15T00:06:26.056Z,100350.13
2023-07-15T00:08:53.525Z,100328.97
2023-07-15T00:11:31.308Z,100331.81
2023-07-15T00:13:59.203Z,100340.34
2023-07-15T00:16:27.752Z,100335.59
2023-07-15T00:18:54.688Z,100334.13
2023-07-15T00:21:24.190Z,100312.06
2023-07-15T00:23:56.846Z,100335.53
2023-07-15T00:26:24.952Z,100341.50
2023-07-15T00:28:51.798Z,100335.13
2023-07-15T00:31:20.056Z,100354.66
2023-07-15T00:33:47.407Z,100344.16
2023-07-15T00:36:15.080Z,100361.00
2023-07-15T00:38:43.239Z,100344.31
2023-07-15T00:41:20.643Z,100364.00
2023-07-15T00:44:15.803Z,100356.53
2023-07-15T00:47:00.673Z,100367.03
2023-07-15T00:49:28.714Z,100366.00
2023-07-15T00:52:05.193Z,100359.81
2023-07-15T00:54:36.404Z,100363.06
2023-07-15T00:57:03.053Z,100350.72
2023-07-15T00:59:30.733Z,100361.22
2023-07-15T01:01:57.629Z,100352.34
2023-07-15T01:04:24.117Z,100352.34
2023-07-15T01:06:54.916Z,100358.97
2023-07-15T01:09:22.422Z,100352.66
2023-07-15T01:11:49.406Z,100356.16
2023-07-15T01:14:15.952Z,100362.78
2023-07-15T01:16:42.391Z,100367.56
2023-07-15T01:19:09.656Z,100370.03
2023-07-15T01:21:36.880Z,100361.84
2023-07-15T01:24:04.463Z,100348.34
2023-07-15T01:26:32.363Z,100365.19
2023-07-15T01:28:58.830Z,100369.13
2023-07-15T01:31:26.865Z,100364.56
2023-07-15T01:33:53.561Z,100366.50
2023-07-15T01:36:20.022Z,100380.38
2023-07-15T01:38:46.491Z,100388.19
2023-07-15T01:41:13.039Z,100380.22
2023-07-15T01:43:39.589Z,100397.50
2023-07-15T01:46:06.431Z,100389.88
2023-07-15T01:48:32.860Z,100400.84
2023-07-15T01:50:59.278Z,100402.94
2023-07-15T01:53:25.745Z,100399.28
2023-07-15T01:55:52.204Z,100400.09
2023-07-15T01:58:18.726Z,100409.41
2023-07-15T02:00:45.233Z,100393.59
2023-07-15T02:03:11.803Z,100392.56
2023-07-15T02:05:38.429Z,100386.19
2023-07-15T02:08:05.095Z,100400.00
2023-07-15T02:10:33.102Z,100406.59
2023-07-15T02:12:59.548Z,100407.22
2023-07-15T02:15:26.051Z,100394.78
2023-07-15T02:17:52.538Z,100402.16
2023-07-15T02:20:20.327Z,100392.13
2023-07-15T02:22:46.781Z,100409.63
2023-07-15T02:25:13.370Z,100408.88
2023-07-15T02:27:39.951Z,100420.41
2023-07-15T02:30:10.257Z,100410.34
2023-07-15T02:32:42.054Z,100403.19
2023-07-15T02:35:14.954Z,100401.59
2023-07-15T02:37:43.291Z,100411.25
2023-07-15T02:40:11.379Z,100404.91
2023-07-15T02:42:38.863Z,100408.41
2023-07-15T02:45:09.028Z,100416.28
2023-07-15T02:47:35.765Z,100413.22
2023-07-15T02:50:08.954Z,100408.94
2023-07-15T02:52:37.507Z,100413.69
2023-07-15T02:55:06.005Z,100401.16
2023-07-15T02:57:33.388Z,100409.41
2023-07-15T03:00:00.277Z,100403.63
2023-07-15T03:02:27.138Z,100398.31
2023-07-15T03:04:53.688Z,100400.16
2023-07-15T03:07:20.562Z,100409.66
2023-07-15T03:09:47.117Z,100389.13
2023-07-15T03:12:13.643Z,100402.94
2023-07-15T03:14:43.164Z,100399.16
2023-07-15T03:17:10.974Z,100397.47
2023-07-15T03:19:38.594Z,100402.59
2023-07-15T03:22:05.929Z,100403.75
2023-07-15T03:24:32.664Z,100409.06
2023-07-15T03:26:59.111Z,100410.25
2023-07-15T03:29:25.564Z,100409.41
2023-07-15T03:31:52.138Z,100408.81
2023-07-15T03:34:19.554Z,100411.06
2023-07-15T03:36:46.396Z,100418.88
2023-07-15T03:39:12.836Z,100420.50
2023-07-15T03:41:39.338Z,100419.72
2023-07-15T03:44:05.830Z,100411.88
2023-07-15T03:46:32.389Z,100416.78
2023-07-15T03:48:58.891Z,100414.94
2023-07-15T03:51:25.368Z,100407.75
2023-07-15T03:53:51.899Z,100413.13
2023-07-15T03:56:18.351Z,100409.00
2023-07-15T03:58:44.783Z,100408.22
2023-07-15T04:01:11.886Z,100397.09
2023-07-15T04:03:38.424Z,100402.47
2023-07-15T04:06:05.202Z,100407.59
2023-07-15T04:08:31.674Z,100399.34
2023-07-15T04:10:58.115Z,100403.06
2023-07-15T04:13:24.539Z,100408.59
2023-07-15T04:15:51.047Z,100412.09
2023-07-15T04:18:17.947Z,100403.66
2023-07-15T04:20:44.602Z,100413.28
2023-07-15T04:23:11.158Z,100420.69
2023-07-15T04:25:37.717Z,100420.25
2023-07-15T04:28:05.214Z,100431.13
2023-07-15T04:30:31.694Z,100416.72
2023-07-15T04:32:58.151Z,100426.53
2023-07-15T04:35:24.672Z,100419.94
2023-07-15T04:37:52.060Z,100419.50
2023-07-15T04:40:18.576Z,100417.84
2023-07-15T04:42:46.720Z,100426.88
2023-07-15T04:45:13.504Z,100423.78
2023-07-15T04:47:40.515Z,100436.72
2023-07-15T04:50:07.373Z,100428.47
2023-07-15T04:52:33.891Z,100416.31
2023-07-15T04:55:00.369Z,100426.00
2023-07-15T04:57:26.905Z,100407.53
2023-07-15T04:59:53.978Z,100415.28
2023-07-15T05:02:20.459Z,100430.50
2023-07-15T05:04:46.935Z,100421.28
2023-07-15T05:07:13.431Z,100443.69
2023-07-15T05:09:41.034Z,100434.66
2023-07-15T05:12:07.857Z,100442.47
2023-07-15T05:14:35.320Z,100427.13
2023-07-15T05:17:01.755Z,100438.38
2023-07-15T05:19:28.185Z,100449.91
2023-07-15T05:21:54.900Z,100451.78
2023-07-15T05:24:21.352Z,100437.53
2023-07-15T05:26:47.845Z,100441.22
2023-07-15T05:29:14.369Z,100455.66
2023-07-15T05:31:40.885Z,100465.91
2023-07-15T05:34:07.343Z,100456.00
2023-07-15T05:36:33.875Z,100453.13
2023-07-15T05:39:00.332Z,100434.00
2023-07-15T05:41:26.757Z,100451.25
2023-07-15T05:43:53.204Z,100458.88
2023-07-15T05:46:19.660Z,100461.34
2023-07-15T05:48:49.319Z,100461.34
2023-07-15T05:51:16.436Z,100457.84
2023-07-15T05:53:44.291Z,100445.03
2023-07-15T05:56:10.761Z,100444.19
2023-07-15T05:58:37.233Z,100459.03
2023-07-15T06:01:05.236Z,100455.75
2023-07-15T06:03:32.186Z,100451.97
2023-07-15T06:06:05.141Z,100457.94
2023-07-15T06:08:34.841Z,100462.84
2023-07-15T06:11:01.361Z,100468.44
2023-07-15T06:13:30.218Z,100460.84
2023-07-15T06:15:57.125Z,100465.53
2023-07-15T06:18:24.391Z,100471.50
2023-07-15T06:20:51.215Z,100474.41
2023-07-15T06:23:18.102Z,100474.41
2023-07-15T06:25:44.581Z,100478.28
2023-07-15T06:28:11.068Z,100468.59
2023-07-15T06:30:37.580Z,100469.34
2023-07-15T06:33:04.184Z,100456.56
2023-07-15T06:35:30.653Z,100461.44
2023-07-15T06:37:57.113Z,100460.03
2023-07-15T06:40:23.598Z,100469.66
2023-07-15T06:42:50.066Z,100462.81
2023-07-15T06:45:21.759Z,100467.88
2023-07-15T06:47:48.400Z,100443.81
2023-07-15T06:50:14.892Z,100471.69
2023-07-15T06:52:41.329Z,100453.34
2023-07-15T06:55:08.108Z,100458.88
2023-07-15T06:57:34.564Z,100452.31
2023-07-15T07:00:01.009Z,100459.69
2023-07-15T07:02:27.516Z,100450.19
2023-07-15T07:04:53.995Z,100444.59
2023-07-15T07:07:23.510Z,100458.09
2023-07-15T07:09:50.204Z,100454.13
2023-07-15T07:12:16.659Z,100378.13
2023-07-15T07:14:43.138Z,100469.72
2023-07-15T07:17:09.589Z,100472.59
2023-07-15T07:19:36.149Z,100464.94
2023-07-15T07:22:02.592Z,100466.19
2023-07-15T07:24:29.039Z,100447.69
2023-07-15T07:26:55.497Z,100473.13
2023-07-15T07:29:23.412Z,100470.91
2023-07-15T07:31:50.020Z,100470.75
2023-07-15T07:34:16.450Z,100491.41
2023-07-15T07:36:42.876Z,100484.84
2023-07-15T07:39:09.339Z,100490.47
2023-07-15T07:41:35.759Z,100497.88
2023-07-15T07:44:02.190Z,100497.31
2023-07-15T07:46:28.781Z,100494.69
2023-07-15T07:48:55.243Z,100502.47
2023-07-15T07:51:21.767Z,100466.09
2023-07-15T07:53:48.179Z,100508.19
2023-07-15T07:56:14.700Z,100505.66
2023-07-15T07:58:41.521Z,100502.09
2023-07-15T08:01:08.049Z,100501.47
2023-07-15T08:03:34.727Z,100488.81
2023-07-15T08:06:01.270Z,100497.66
2023-07-15T08:08:27.779Z,100507.75
2023-07-15T08:10:54.496Z,100498.25
2023-07-15T08:13:21.267Z,100480.22
2023-07-15T08:15:47.953Z,100511.47
2023-07-15T08:18:14.565Z,100512.66
2023-07-15T08:20:43.809Z,100502.72
2023-07-15T08:23:10.353Z,100496.78
2023-07-15T08:25:39.290Z,100511.63
2023-07-15T08:28:05.907Z,100501.19
2023-07-15T08:30:37.128Z,100519.53
2023-07-15T08:33:07.619Z,100510.22
2023-07-15T08:35:35.612Z,100520.13
2023-07-15T08:38:02.214Z,100520.34
2023-07-15T08:40:30.265Z,100510.44
2023-07-15T08:42:56.801Z,100517.09
2023-07-15T08:45:25.695Z,100515.34
2023-07-15T08:47:52.278Z,100512.59
2023-07-15T08:50:19.415Z,100502.03
2023-07-15T08:52:46.257Z,100517.16
2023-07-15T08:55:14.386Z,100506.53
2023-07-15T08:57:41.287Z,100505.38
2023-07-15T09:00:13.037Z,100503.78
2023-07-15T09:02:40.369Z,100512.06
2023-07-15T09:05:09.258Z,100514.47
2023-07-15T09:07:46.663Z,100523.63
2023-07-15T09:10:14.224Z,100511.31
2023-07-15T09:12:45.312Z,100515.78
2023-07-15T09:15:12.273Z,100520.59
2023-07-15T09:17:38.849Z,100513.31
2023-07-15T09:20:21.741Z,100522.31
2023-07-15T09:22:59.919Z,100531.59
2023-07-15T09:25:26.949Z,100523.38
2023-07-15T09:27:54.608Z,100546.91
2023-07-15T09:30:21.605Z,100531.09
2023-07-15T09:32:48.996Z,100538.59
2023-07-15T09:35:15.966Z,100552.41
2023-07-15T09:37:42.586Z,100537.44
2023-07-15T09:40:09.994Z,100550.44
2023-07-15T09:42:56.295Z,100536.34
2023-07-15T09:45:37.183Z,100545.72
2023-07-15T09:48:08.728Z,100539.88
2023-07-15T09:50:36.908Z,100540.13
2023-07-15T09:53:05.595Z,100538.94
2023-07-15T09:55:33.534Z,100537.31
2023-07-15T09:58:09.895Z,100546.56
2023-07-15T10:00:40.266Z,100552.88
2023-07-15T10:03:09.551Z,100546.22
2023-07-15T10:05:36.227Z,100541.03
2023-07-15T10:08:02.849Z,100553.72
2023-07-15T10:10:29.345Z,100552.41
2023-07-15T10:12:56.137Z,100567.41
2023-07-15T10:15:24.797Z,100543.06
2023-07-15T10:17:51.329Z,100545.03
2023-07-15T10:20:21.548Z,100546.19
2023-07-15T10:22:50.445Z,100512.13
2023-07-15T10:25:17.714Z,100548.44
2023-07-15T10:27:44.389Z,100543.38
2023-07-15T10:30:26.584Z,100546.63
2023-07-15T10:33:02.629Z,100535.84
2023-07-15T10:35:30.532Z,100527.72
2023-07-15T10:38:04.001Z,100516.91
2023-07-15T10:40:50.242Z,100523.91
2023-07-15T10:43:25.387Z,100513.97
2023-07-15T10:45:56.156Z,100519.56
2023-07-15T10:48:23.489Z,100499.75
2023-07-15T10:50:53.927Z,100508.06
2023-07-15T10:53:27.110Z,100519.50
2023-07-15T10:56:07.666Z,100461.34
2023-07-15T10:58:35.581Z,100501.38
2023-07-15T11:01:10.354Z,100501.88
2023-07-15T11:03:44.243Z,100499.88
2023-07-15T11:06:12.004Z,100507.38
2023-07-15T11:08:40.931Z,100505.19
2023-07-15T11:11:11.366Z,100475.31
2023-07-15T11:13:39.422Z,100503.72
2023-07-15T11:16:06.215Z,100505.56
2023-07-15T11:18:32.702Z,100493.72
2023-07-15T11:21:01.407Z,100494.94
2023-07-15T11:23:30.059Z,100487.34
2023-07-15T11:25:58.626Z,100489.66
2023-07-15T11:28:25.298Z,100493.59
2023-07-15T11:30:51.863Z,100484.00
2023-07-15T11:33:18.416Z,100478.94
2023-07-15T11:35:46.860Z,100482.22
2023-07-15T11:38:28.310Z,100477.34
2023-07-15T11:41:00.208Z,100469.81
2023-07-15T11:43:28.275Z,100457.72
2023-07-15T11:45:56.096Z,100459.25
2023-07-15T11:48:24.181Z,100438.50
2023-07-15T11:50:50.818Z,100459.94
2023-07-15T11:53:30.610Z,100458.47
2023-07-15T11:55:58.057Z,100454.22
2023-07-15T11:58:46.720Z,100467.88
2023-07-15T12:01:15.543Z,100462.84
2023-07-15T12:03:42.223Z,100455.28
2023-07-15T12:06:20.193Z,100418.25
2023-07-15T12:09:11.994Z,100431.72
2023-07-15T12:11:39.064Z,100434.47
2023-07-15T12:14:07.359Z,100422.81
2023-07-15T12:16:35.615Z,100411.09
2023-07-15T12:19:03.695Z,100415.72
2023-07-15T12:21:31.526Z,100413.94
2023-07-15T12:23:58.866Z,100407.50
2023-07-15T12:26:25.564Z,100406.38
2023-07-15T12:28:52.957Z,100419.34
2023-07-15T12:31:20.009Z,100404.97
2023-07-15T12:33:46.628Z,100411.44
2023-07-15T12:36:15.278Z,100385.78
2023-07-15T12:38:42.280Z,100411.88
2023-07-15T12:41:09.602Z,100417.44
2023-07-15T12:43:37.156Z,100409.75
2023-07-15T12:46:04.224Z,100407.56
2023-07-15T12:48:31.407Z,100402.09
2023-07-15T12:50:58.113Z,100404.72
2023-07-15T12:53:25.736Z,100374.81
2023-07-15T12:55:55.415Z,100381.97
2023-07-15T12:58:22.752Z,100393.63
2023-07-15T13:00:50.050Z,100392.03
2023-07-15T13:03:16.946Z,100406.13
2023-07-15T13:05:43.600Z,100389.25
2023-07-15T13:08:11.966Z,100392.47
2023-07-15T13:10:38.457Z,100398.94
2023-07-15T13:13:04.881Z,100411.78
2023-07-15T13:15:31.378Z,100401.84
2023-07-15T13:17:57.830Z,100401.63
2023-07-15T13:20:24.393Z,100413.16
2023-07-15T13:22:50.910Z,100413.31
2023-07-15T13:25:17.354Z,100412.69
2023-07-15T13:27:43.770Z,100419.00
2023-07-15T13:30:11.660Z,100410.06
2023-07-15T13:32:38.933Z,100416.88
2023-07-15T13:35:06.329Z,100402.31
2023-07-15T13:37:32.844Z,100399.59
2023-07-15T13:39:59.301Z,100420.09
2023-07-15T13:42:25.847Z,100395.66
2023-07-15T13:44:52.327Z,100386.41
2023-07-15T13:47:18.937Z,100375.34
2023-07-15T13:49:45.762Z,100370.22
2023-07-15T13:52:12.564Z,100366.53
2023-07-15T13:54:39.126Z,100367.28
2023-07-15T13:57:05.965Z,100364.75
2023-07-15T13:59:32.561Z,100360.00
2023-07-15T14:01:59.039Z,100366.84
2023-07-15T14:04:25.589Z,100367.31
2023-07-15T14:06:52.147Z,100348.81
2023-07-15T14:09:18.648Z,100362.63
2023-07-15T14:11:46.110Z,100347.38
2023-07-15T14:14:15.834Z,100355.50
2023-07-15T14:16:42.470Z,100322.50
2023-07-15T14:19:09.062Z,100335.59
2023-07-15T14:21:35.508Z,100330.13
2023-07-15T14:24:04.896Z,100323.00
2023-07-15T14:26:32.675Z,100323.22
2023-07-15T14:28:59.205Z,100312.31
2023-07-15T14:31:25.958Z,100308.41
2023-07-15T14:33:55.357Z,100297.25
2023-07-15T14:36:22.960Z,100304.22
2023-07-15T14:38:49.776Z,100314.28
2023-07-15T14:41:17.727Z,100302.19
2023-07-15T14:43:44.331Z,100322.50
2023-07-15T14:46:10.847Z,100329.91
2023-07-15T14:48:39.156Z,100315.31
2023-07-15T14:51:05.789Z,100300.59
2023-07-15T14:53:32.699Z,100262.63
2023-07-15T14:55:59.373Z,100259.53
2023-07-15T14:58:26.043Z,100287.13
2023-07-15T15:00:52.777Z,100296.25
2023-07-15T15:03:19.457Z,100287.75
2023-07-15T15:05:46.140Z,100369.44
2023-07-15T15:08:13.115Z,100415.13
2023-07-15T15:10:39.913Z,100453.53
2023-07-15T15:13:06.691Z,100453.97
2023-07-15T15:15:33.380Z,100467.31
2023-07-15T15:17:59.873Z,100450.09
2023-07-15T15:20:26.325Z,100488.75
2023-07-15T15:22:52.817Z,100502.16
2023-07-15T15:25:19.281Z,100543.47
2023-07-15T15:27:45.700Z,100540.41
2023-07-15T15:30:15.019Z,100566.00
2023-07-15T15:32:42.264Z,100571.97
2023-07-15T15:35:09.226Z,100567.34
2023-07-15T15:37:35.777Z,100559.16
2023-07-15T15:40:02.220Z,100579.34
2023-07-15T15:42:28.672Z,100587.81
2023-07-15T15:44:57.215Z,100567.44
2023-07-15T15:47:23.756Z,100582.25
2023-07-15T15:49:50.212Z,100589.88
2023-07-15T15:52:16.681Z,100580.19
2023-07-15T15:54:43.234Z,100575.88
2023-07-15T15:57:09.718Z,100569.72
2023-07-15T15:59:36.141Z,100563.97
2023-07-15T16:02:02.636Z,100546.06
2023-07-15T16:04:29.097Z,100541.53
2023-07-15T16:06:55.802Z,100531.47
2023-07-15T16:09:22.362Z,100525.69
2023-07-15T16:11:48.797Z,100529.13
2023-07-15T16:14:15.290Z,100502.75
2023-07-15T16:16:41.835Z,100515.88
2023-07-15T16:19:10.649Z,100501.84
2023-07-15T16:21:37.488Z,100493.94
2023-07-15T16:24:04.150Z,100513.84
2023-07-15T16:26:30.630Z,100523.97
2023-07-15T16:28:57.088Z,100511.53
2023-07-15T16:31:23.551Z,100525.63
2023-07-15T16:33:50.008Z,100511.88
2023-07-15T16:36:16.435Z,100519.91
2023-07-15T16:38:42.909Z,100518.66
2023-07-15T16:41:09.374Z,100524.53
2023-07-15T16:43:36.322Z,100518.50
2023-07-15T16:46:03.047Z,100531.06
2023-07-15T16:48:29.577Z,100532.13
2023-07-15T16:50:56.010Z,100533.69
2023-07-15T16:53:23.234Z,100515.69
2023-07-15T16:55:52.588Z,100527.94
2023-07-15T16:58:20.348Z,100534.28
2023-07-15T17:00:46.772Z,100531.53
2023-07-15T17:03:13.406Z,100511.13
2023-07-15T17:05:39.921Z,100523.56
2023-07-15T17:08:06.397Z,100522.31
2023-07-15T17:10:32.872Z,100527.19
2023-07-15T17:12:59.321Z,100521.63
2023-07-15T17:15:25.840Z,100521.38
2023-07-15T17:17:52.648Z,100525.88
2023-07-15T17:20:19.248Z,100528.56
2023-07-15T17:22:45.701Z,100537.81
2023-07-15T17:25:12.181Z,100539.22
2023-07-15T17:27:38.629Z,100545.47
2023-07-15T17:30:05.692Z,100526.94
2023-07-15T17:32:32.152Z,100540.19
2023-07-15T17:34:58.882Z,100535.81
2023-07-15T17:37:28.024Z,100535.63
2023-07-15T17:39:54.663Z,100528.06
2023-07-15T17:42:21.103Z,100534.19
2023-07-15T17:44:47.546Z,100539.56
2023-07-15T17:47:14.009Z,100538.34
2023-07-15T17:49:40.430Z,100545.63
2023-07-15T17:52:09.593Z,100531.84
2023-07-15T17:54:36.053Z,100542.75
2023-07-15T17:57:02.691Z,100538.44
2023-07-15T17:59:29.128Z,100538.81
2023-07-15T18:01:55.692Z,100539.97
2023-07-15T18:04:22.243Z,100544.03
2023-07-15T18:06:48.707Z,100555.53
2023-07-15T18:09:15.144Z,100556.94
2023-07-15T18:11:41.825Z,100543.59
2023-07-15T18:14:08.485Z,100536.88
2023-07-15T18:16:35.132Z,100541.19
2023-07-15T18:19:01.776Z,100536.09
2023-07-15T18:21:28.204Z,100539.88
2023-07-15T18:23:54.640Z,100549.38
2023-07-15T18:26:21.106Z,100541.34
2023-07-15T18:28:48.599Z,100531.00
2023-07-15T18:31:15.265Z,100540.59
2023-07-15T18:33:42.020Z,100546.72
2023-07-15T18:36:08.444Z,100552.25
2023-07-15T18:38:34.894Z,100557.78
2023-07-15T18:41:01.457Z,100551.38
2023-07-15T18:43:27.913Z,100554.06
2023-07-15T18:45:54.594Z,100552.00
2023-07-15T18:48:21.024Z,100560.03
2023-07-15T18:50:47.476Z,100570.97
2023-07-15T18:53:13.925Z,100573.47
2023-07-15T18:55:40.354Z,100595.72
2023-07-15T18:58:06.840Z,100592.22
2023-07-15T19:00:33.299Z,100581.50
2023-07-15T19:02:59.880Z,100576.56
2023-07-15T19:05:26.461Z,100585.63
2023-07-15T19:07:52.870Z,100590.81
2023-07-15T19:10:19.327Z,100586.47
2023-07-15T19:12:45.745Z,100591.47
2023-07-15T19:15:12.213Z,100596.59
2023-07-15T19:17:38.676Z,100577.88
2023-07-15T19:20:06.792Z,100597.03
2023-07-15T19:22:33.317Z,100589.47
2023-07-15T19:24:59.895Z,100592.75
2023-07-15T19:27:26.462Z,100604.91
2023-07-15T19:29:52.990Z,100604.97
2023-07-15T19:32:19.611Z,100601.84
2023-07-15T19:34:46.139Z,100599.19
2023-07-15T19:37:12.593Z,100615.47
2023-07-15T19:39:39.028Z,100625.41
2023-07-15T19:42:05.853Z,100630.13
2023-07-15T19:44:32.356Z,100638.41
2023-07-15T19:46:59.456Z,100642.16
2023-07-15T19:49:26.038Z,100650.88
2023-07-15T19:51:54.103Z,100634.03
2023-07-15T19:54:20.561Z,100644.97
2023-07-15T19:56:47.012Z,100641.69
2023-07-15T19:59:13.472Z,100644.22
2023-07-15T20:01:40.021Z,100646.50
2023-07-15T20:04:07.598Z,100655.97
2023-07-15T20:06:34.237Z,100654.97
2023-07-15T20:09:00.704Z,100665.16
2023-07-15T20:11:27.360Z,100662.50
2023-07-15T20:13:53.804Z,100682.72
2023-07-15T20:16:20.659Z,100665.84
2023-07-15T20:18:47.301Z,100686.84
2023-07-15T20:21:13.812Z,100680.69
2023-07-15T20:23:40.298Z,100688.94
2023-07-15T20:26:06.765Z,100675.53
2023-07-15T20:28:33.225Z,100688.50
2023-07-15T20:31:00.464Z,100676.72
2023-07-15T20:33:27.084Z,100683.38
2023-07-15T20:35:53.700Z,100692.84
2023-07-15T20:38:20.193Z,100686.06
2023-07-15T20:40:56.462Z,100688.91
2023-07-15T20:43:24.981Z,100689.31
2023-07-15T20:45:51.718Z,100682.50
2023-07-15T20:48:18.554Z,100685.19
2023-07-15T20:50:45.076Z,100698.78
2023-07-15T20:53:11.558Z,100691.38
2023-07-15T20:55:42.058Z,100696.75
2023-07-15T20:58:08.776Z,100702.91
2023-07-15T21:00:35.427Z,100706.16
2023-07-15T21:03:02.172Z,100704.44
2023-07-15T21:05:28.827Z,100706.47
2023-07-15T21:07:55.304Z,100715.09
2023-07-15T21:10:22.000Z,100679.41
2023-07-15T21:12:48.476Z,100708.50
2023-07-15T21:15:14.949Z,100719.25
2023-07-15T21:17:41.446Z,100703.84
2023-07-15T21:20:08.541Z,100720.34
2023-07-15T21:22:35.077Z,100722.25
2023-07-15T21:25:01.561Z,100723.28
2023-07-15T21:27:28.026Z,100719.38
2023-07-15T21:29:54.536Z,100704.34
2023-07-15T21:32:21.005Z,100720.63
2023-07-15T21:34:50.841Z,100716.91
2023-07-15T21:37:17.361Z,100715.25
2023-07-15T21:39:43.909Z,100722.66
2023-07-15T21:42:10.481Z,100716.31
2023-07-15T21:44:36.996Z,100724.53
2023-07-15T21:47:03.619Z,100722.47
2023-07-15T21:49:30.215Z,100724.34
2023-07-15T21:51:56.699Z,100708.06
2023-07-15T21:54:23.710Z,100721.25
2023-07-15T21:56:50.353Z,100716.72
2023-07-15T21:59:16.931Z,100719.81
2023-07-15T22:01:43.667Z,100741.44
2023-07-15T22:04:10.333Z,100737.13
2023-07-15T22:06:36.771Z,100744.13
2023-07-15T22:09:03.368Z,100751.94
2023-07-15T22:11:29.840Z,100746.81
2023-07-15T22:13:56.331Z,100757.13
2023-07-15T22:16:22.848Z,100755.47
2023-07-15T22:18:49.320Z,100756.69
2023-07-15T22:21:15.793Z,100753.19
2023-07-15T22:23:42.214Z,100744.91
2023-07-15T22:26:09.590Z,100759.75
2023-07-15T22:28:37.040Z,100758.13
2023-07-15T22:31:03.816Z,100756.84
2023-07-15T22:33:30.446Z,100747.38
2023-07-15T22:35:56.904Z,100756.47
2023-07-15T22:38:23.680Z,100759.53
2023-07-15T22:40:50.216Z,100757.06
2023-07-15T22:43:19.198Z,100735.44
2023-07-15T22:45:55.930Z,100761.41
2023-07-15T22:48:24.298Z,100767.38
2023-07-15T22:50:51.003Z,100761.78
2023-07-15T22:53:17.749Z,100769.19
2023-07-15T22:55:44.237Z,100763.44
2023-07-15T22:58:10.685Z,100763.44
2023-07-15T23:00:37.205Z,100780.31
2023-07-15T23:03:04.103Z,100757.06
2023-07-15T23:05:30.792Z,100780.94
2023-07-15T23:07:57.337Z,100780.53
2023-07-15T23:10:23.999Z,100769.59
2023-07-15T23:12:50.527Z,100778.69
2023-07-15T23:15:17.110Z,100774.56
2023-07-15T23:17:43.554Z,100781.16
2023-07-15T23:20:10.138Z,100779.53
2023-07-15T23:22:37.380Z,100771.66
2023-07-15T23:25:04.313Z,100779.31
2023-07-15T23:27:31.086Z,100778.47
2023-07-15T23:29:57.535Z,100766.75
2023-07-15T23:32:26.371Z,100768.38
2023-07-15T23:34:59.046Z,100757.47
2023-07-15T23:37:25.943Z,100754.16
2023-07-15T23:39:56.562Z,100774.34
2023-07-15T23:42:24.322Z,100764.66
2023-07-15T23:44:51.144Z,100759.91
2023-07-15T23:47:17.610Z,100749.00
2023-07-15T23:49:47.599Z,100750.84
2023-07-15T23:52:15.153Z,100765.44
2023-07-15T23:54:41.666Z,100770.78
2023-07-15T23:57:08.382Z,100762.56
2023-07-15T23:59:34.831Z,100772.41
